Terminal Aerodrome Forecast
Issued by NWS Greer, SC

Home | Current Version | Previous Version | Text Only | Print | Product List | Glossary On
Versions: 1 2 3 4 5 6 7 8 9 10 11 12 13 14 15 16 17 18 19 20 21 22 23 24 25 26 27 28 29 30 31 32 33 34 35 36 37 38 39 40
000
FTUS42 KGSP 240801 AAA
TAFAVL
TAF AMD
KAVL 240801Z 2408/2506 VRB02KT 3SM BR OVC004
     FM241300 18005KT P6SM FEW025 SCT050
     FM241600 21009G16KT P6SM VCSH SCT030 BKN050 PROB30 2421/2502
      4SM TSRA OVC025CB
     FM250200 33008KT 6SM -DZ FEW005 BKN025=

USA.gov is the U.S. government's official web portal to all federal, state and local government web resources and services.